Thunder radar more information blitzortung!


Radar de pluja more information rain snow radar


Visita la nostra xarxa de llocs de meteo:

Template documentation
and downloads

And another site



No particular awareness of the weather is required.    There are no Weather-warnings

Pagina Historial Weather Underground text

Diari Resum May 3, 2017 Unitats:  Imperial    Mètric   Tant
« Previous Dia
SegĂźent Dia »
Diari Setmana Mensual Anual Personalitzada
  Maxima: Minima: Media:
Temperatura: TemperatureC °F 11.0 °F 13.9 °F
Punt de rosada: DewpointC °F 7.9 °F 10.4 °F
Humitat: Humidity % 64 % 79 %
Wind Speed: WindSpeedKMH mph 0.0 mph 5.3 mph
RĂ fegues de vent: WindSpeedGustKMH mph - -
Vent:- - East
Pression baro: PressurehPa in 1015.8 in -
Precipitacions: 6.3 in    
Historical Graphs
 
 
Dades de taula per May 3, 2017
Temps Temperatura Punt de rosada Pression baro Vent Wind Speed RĂ fegues de vent Humitat Rainfall Rate (Hourly)
TemperatureC °F DewpointC °F PressurehPa in Calm     Humidity % HourlyPrecipMM in
11:10 14.7 °F 8.2 °F 1018.8 in East 1.6 mph 4.8 mph 65 % 0.0 in
11:11 14.9 °F 8.4 °F 1018.8 in NE 3.7 mph 3.9 mph 65 % 0.0 in
11:12 14.9 °F 8.4 °F 1018.8 in ESE 3.7 mph 3.7 mph 65 % 0.0 in
11:13 14.7 °F 8.2 °F 1019.9 in ENE 3.7 mph 3.9 mph 65 % 0.0 in
11:18 14.7 °F 7.9 °F 1019.9 in ESE 7.4 mph 7.4 mph 64 % 0.0 in
11:23 14.7 °F 8.2 °F 1019.9 in SE 5.6 mph 5.8 mph 65 % 0.0 in
11:28 14.8 °F 8.3 °F 1018.8 in ESE 3.7 mph 3.9 mph 65 % 0.0 in
11:33 14.8 °F 8.3 °F 1018.8 in SE 3.7 mph 3.7 mph 65 % 0.0 in
11:38 15.0 °F 8.4 °F 1018.8 in NE 5.6 mph 5.6 mph 65 % 0.0 in
11:43 15.0 °F 8.4 °F 1018.8 in SSW 5.6 mph 5.6 mph 65 % 0.0 in
11:48 15.6 °F 9.3 °F 1018.8 in ESE 6.1 mph 6.1 mph 66 % 0.0 in
11:53 15.5 °F 8.9 °F 1018.8 in SE 9.3 mph 9.3 mph 65 % 0.0 in
11:58 15.4 °F 8.8 °F 1018.8 in SE 5.6 mph 5.6 mph 65 % 0.0 in
12:03 15.6 °F 9.1 °F 1018.8 in ENE 11.1 mph 11.1 mph 65 % 0.0 in
12:08 15.6 °F 9.1 °F 1018.8 in ENE 5.6 mph 5.6 mph 65 % 0.0 in
12:13 15.6 °F 9.1 °F 1018.8 in NE 7.4 mph 7.4 mph 65 % 0.0 in
12:18 15.6 °F 8.8 °F 1018.8 in NE 5.6 mph 5.6 mph 64 % 0.0 in
12:20 15.7 °F 8.9 °F 1018.8 in ESE 11.1 mph 11.1 mph 64 % 0.0 in
12:25 15.7 °F 8.9 °F 1018.8 in East 7.4 mph 7.4 mph 64 % 0.0 in
12:30 15.7 °F 8.9 °F 1018.8 in NNE 7.4 mph 7.4 mph 64 % 0.0 in
12:35 15.8 °F 9.2 °F 1018.8 in East 5.6 mph 5.6 mph 65 % 0.0 in
12:40 15.9 °F 9.1 °F 1018.8 in NNE 7.4 mph 7.4 mph 64 % 0.0 in
12:45 15.9 °F 9.1 °F 1017.8 in ENE 5.6 mph 5.6 mph 64 % 0.0 in
12:50 16.0 °F 9.4 °F 1017.8 in NE 7.4 mph 7.4 mph 65 % 0.0 in
12:55 15.8 °F 9.2 °F 1017.8 in SE 4.2 mph 4.7 mph 65 % 0.0 in
13:00 15.8 °F 9.2 °F 1018.8 in SSE 9.3 mph 9.3 mph 65 % 0.0 in
13:05 15.6 °F 9.1 °F 1018.8 in East 7.4 mph 7.4 mph 65 % 0.0 in
13:10 15.6 °F 9.1 °F 1018.8 in ENE 7.4 mph 7.4 mph 65 % 0.0 in
13:15 15.6 °F 9.3 °F 1018.8 in East 9.3 mph 9.3 mph 66 % 0.0 in
13:20 15.5 °F 9.4 °F 1018.8 in ESE 9.3 mph 9.3 mph 67 % 0.0 in
13:25 15.4 °F 9.5 °F 1018.8 in SE 7.4 mph 7.4 mph 68 % 0.0 in
13:30 15.3 °F 9.4 °F 1018.8 in ENE 5.6 mph 5.6 mph 68 % 0.0 in
13:35 15.3 °F 9.7 °F 1018.8 in East 7.4 mph 7.4 mph 69 % 0.0 in
13:40 15.2 °F 9.6 °F 1018.8 in ESE 7.4 mph 7.4 mph 69 % 0.0 in
13:45 15.1 °F 9.7 °F 1018.8 in East 6.4 mph 6.4 mph 70 % 0.0 in
13:50 15.0 °F 9.8 °F 1018.8 in East 5.6 mph 5.6 mph 71 % 0.0 in
13:55 15.0 °F 10.0 °F 1018.8 in ENE 5.6 mph 5.6 mph 72 % 0.0 in
14:00 14.9 °F 9.9 °F 1018.8 in ENE 7.4 mph 7.4 mph 72 % 0.0 in
14:05 14.7 °F 10.1 °F 1018.8 in ENE 5.6 mph 5.6 mph 74 % 0.0 in
14:10 14.5 °F 9.9 °F 1018.8 in ENE 7.4 mph 7.4 mph 74 % 0.0 in
14:15 14.5 °F 10.5 °F 1018.8 in ENE 3.7 mph 3.7 mph 77 % 0.0 in
14:20 14.3 °F 10.3 °F 1018.8 in NNE 5.6 mph 5.6 mph 77 % 0.0 in
14:25 14.2 °F 10.4 °F 1018.8 in NNE 5.6 mph 5.6 mph 78 % 0.0 in
14:30 14.0 °F 10.2 °F 1018.8 in ENE 7.4 mph 7.4 mph 78 % 0.0 in
14:35 13.9 °F 10.1 °F 1018.8 in NNW 5.6 mph 5.6 mph 78 % 1.0 in
14:40 13.8 °F 10.1 °F 1018.8 in North 5.6 mph 5.6 mph 78 % 3.0 in
14:45 13.5 °F 9.9 °F 1018.8 in NE 9.3 mph 9.3 mph 79 % 4.3 in
14:50 13.4 °F 10.0 °F 1018.8 in ENE 7.4 mph 7.4 mph 80 % 4.3 in
14:55 13.4 °F 10.2 °F 1018.8 in NNE 3.7 mph 3.7 mph 81 % 5.1 in
15:00 13.4 °F 10.2 °F 1018.8 in ENE 5.8 mph 5.8 mph 81 % 5.1 in
15:05 13.3 °F 10.1 °F 1018.8 in ENE 5.6 mph 5.6 mph 81 % 5.1 in
15:10 13.2 °F 10.2 °F 1018.8 in ENE 7.4 mph 7.4 mph 82 % 5.1 in
15:15 13.1 °F 10.1 °F 1018.8 in ENE 7.4 mph 7.4 mph 82 % 5.1 in
15:20 13.2 °F 10.4 °F 1018.8 in ENE 4.2 mph 4.2 mph 83 % 6.3 in
15:25 13.3 °F 10.5 °F 1018.8 in ENE 5.6 mph 5.6 mph 83 % 6.3 in
15:30 13.2 °F 10.4 °F 1018.8 in East 5.6 mph 5.6 mph 83 % 6.3 in
15:35 13.3 °F 10.7 °F 1018.8 in ESE 9.5 mph 9.5 mph 84 % 5.3 in
15:40 13.3 °F 10.7 °F 1018.8 in ESE 13.0 mph 13.0 mph 84 % 3.3 in
15:45 13.4 °F 10.8 °F 1016.8 in ESE 5.6 mph 5.6 mph 84 % 2.0 in
15:50 13.4 °F 10.9 °F 1016.8 in ESE 7.4 mph 7.4 mph 85 % 2.0 in
15:55 13.3 °F 10.7 °F 1016.8 in SE 9.3 mph 9.3 mph 84 % 1.3 in
16:00 13.3 °F 10.7 °F 1017.8 in ESE 13.0 mph 13.0 mph 84 % 1.3 in
16:05 13.6 °F 10.9 °F 1017.8 in East 9.3 mph 9.3 mph 84 % 1.3 in
16:10 13.7 °F 11.2 °F 1017.8 in ENE 5.6 mph 5.6 mph 85 % 1.3 in
16:15 13.8 °F 11.3 °F 1017.8 in East 9.5 mph 9.5 mph 85 % 1.3 in
16:20 13.7 °F 11.1 °F 1017.8 in NNE 7.4 mph 7.4 mph 84 % 0.0 in
16:25 13.8 °F 11.2 °F 1017.8 in ENE 5.6 mph 5.6 mph 84 % 0.0 in
16:30 14.0 °F 11.5 °F 1017.8 in NNE 9.3 mph 9.3 mph 85 % 0.0 in
16:35 14.0 °F 11.3 °F 1017.8 in NNE 6.1 mph 6.1 mph 84 % 0.0 in
16:40 13.9 °F 11.2 °F 1017.8 in NNE 9.3 mph 9.3 mph 84 % 0.0 in
16:45 14.0 °F 11.5 °F 1017.8 in NNE 7.4 mph 7.4 mph 85 % 0.0 in
16:50 14.1 °F 11.6 °F 1017.8 in NNE 3.7 mph 3.7 mph 85 % 0.0 in
16:55 14.0 °F 11.3 °F 1017.8 in NNE 5.6 mph 5.6 mph 84 % 0.0 in
17:00 14.0 °F 11.5 °F 1016.8 in East 7.4 mph 7.4 mph 85 % 0.0 in
17:01 14.0 °F 11.5 °F 1016.8 in East 7.4 mph 7.4 mph 85 % 0.0 in
17:06 14.1 °F 11.6 °F 1016.8 in East 5.6 mph 5.6 mph 85 % 0.0 in
17:11 14.1 °F 11.4 °F 1016.8 in ENE 5.6 mph 5.6 mph 84 % 0.0 in
17:16 14.2 °F 11.7 °F 1017.8 in ENE 7.4 mph 7.4 mph 85 % 0.0 in
17:21 14.3 °F 11.6 °F 1017.8 in SSE 5.6 mph 5.6 mph 84 % 0.0 in
17:26 14.5 °F 11.8 °F 1017.8 in ESE 3.5 mph 3.5 mph 84 % 0.0 in
17:31 14.6 °F 11.9 °F 1017.8 in ENE 5.8 mph 5.8 mph 84 % 0.0 in
17:36 14.7 °F 12.0 °F 1017.8 in ESE 3.7 mph 3.7 mph 84 % 0.0 in
17:41 15.1 °F 12.6 °F 1017.8 in ESE 5.0 mph 5.0 mph 85 % 0.0 in
17:46 15.2 °F 12.5 °F 1017.8 in ESE 5.6 mph 5.6 mph 84 % 0.0 in
17:51 15.6 °F 12.7 °F 1017.8 in SSE 3.7 mph 3.7 mph 83 % 0.0 in
17:56 15.9 °F 13.0 °F 1017.8 in South 7.4 mph 7.4 mph 83 % 0.0 in
18:01 16.1 °F 12.8 °F 1016.8 in South 3.7 mph 3.7 mph 81 % 0.0 in
18:06 16.0 °F 12.7 °F 1016.8 in SSE 5.6 mph 5.6 mph 81 % 0.0 in
18:11 16.0 °F 12.7 °F 1016.8 in SSW 5.6 mph 5.6 mph 81 % 0.0 in
18:16 15.9 °F 12.7 °F 1016.8 in ESE 5.6 mph 5.6 mph 81 % 0.0 in
18:18 15.8 °F 12.6 °F 1016.8 in ESE 7.4 mph 7.4 mph 81 % 0.0 in
18:21 15.8 °F 12.6 °F 1016.8 in East 3.7 mph 3.7 mph 81 % 0.0 in
18:26 16.1 °F 12.8 °F 1016.8 in SSE 5.0 mph 5.0 mph 81 % 0.0 in
18:31 16.2 °F 12.7 °F 1016.8 in SSE 5.6 mph 5.6 mph 80 % 0.0 in
18:36 15.8 °F 12.3 °F 1016.8 in ENE 9.3 mph 9.3 mph 80 % 0.0 in
18:41 15.6 °F 12.3 °F 1016.8 in ESE 7.4 mph 7.4 mph 81 % 0.0 in
18:46 15.4 °F 12.2 °F 1016.8 in ESE 9.3 mph 9.3 mph 81 % 0.0 in
18:51 15.3 °F 12.2 °F 1016.8 in ESE 6.1 mph 6.1 mph 82 % 0.0 in
18:56 15.3 °F 12.2 °F 1016.8 in ESE 7.6 mph 7.6 mph 82 % 0.0 in
19:01 15.2 °F 12.2 °F 1015.8 in NE 7.4 mph 7.4 mph 82 % 0.0 in
19:06 15.3 °F 12.2 °F 1015.8 in ESE 9.3 mph 9.3 mph 82 % 0.0 in
19:11 15.3 °F 12.1 °F 1015.8 in ESE 7.4 mph 7.4 mph 81 % 0.0 in
19:16 15.4 °F 12.2 °F 1015.8 in ENE 7.4 mph 7.4 mph 81 % 0.0 in
19:20 12.2 °F 9.9 °F 1017.8 in Calm     86 % 0.0 in
19:21 15.3 °F 12.1 °F 1015.8 in ESE 11.9 mph 11.9 mph 81 % 0.0 in
19:26 15.2 °F 12.2 °F 1015.8 in ESE 7.4 mph 7.4 mph 82 % 0.0 in
19:30 12.2 °F 10.1 °F 1017.8 in Calm   1.6 mph 87 % 0.0 in
19:31 15.2 °F 12.2 °F 1015.8 in NNE 7.4 mph 7.4 mph 82 % 0.0 in
19:36 15.1 °F 11.9 °F 1015.8 in ESE 9.3 mph 9.3 mph 81 % 0.0 in
19:40 12.1 °F 10.0 °F 1017.8 in NE 1.6 mph 3.2 mph 87 % 0.0 in
19:41 15.2 °F 11.9 °F 1015.8 in SSE 5.0 mph 5.0 mph 81 % 0.0 in
19:46 15.2 °F 11.8 °F 1015.8 in ENE 9.0 mph 9.0 mph 80 % 0.0 in
19:50 12.0 °F 9.9 °F 1017.8 in Calm     87 % 0.0 in
19:51 15.3 °F 11.9 °F 1015.8 in NE 9.3 mph 9.3 mph 80 % 0.0 in
19:56 15.2 °F 11.6 °F 1015.8 in SE 9.7 mph 9.7 mph 79 % 0.0 in
20:00 11.9 °F 9.8 °F 1017.8 in Calm     87 % 0.0 in
20:01 15.1 °F 11.5 °F 1015.8 in ENE 7.4 mph 7.4 mph 79 % 0.0 in
20:06 14.9 °F 11.3 °F 1015.8 in ENE 13.0 mph 13.0 mph 79 % 0.0 in
20:10 11.8 °F 9.7 °F 1017.8 in Calm   1.6 mph 87 % 0.0 in
20:11 14.8 °F 11.4 °F 1015.8 in ESE 14.8 mph 14.8 mph 80 % 0.0 in
20:16 14.7 °F 11.3 °F 1015.8 in NE 14.8 mph 14.8 mph 80 % 0.0 in
20:20 11.9 °F 10.0 °F 1017.8 in Calm     88 % 0.0 in
20:21 14.6 °F 11.4 °F 1015.8 in ENE 11.1 mph 11.1 mph 81 % 0.0 in
20:26 14.6 °F 11.6 °F 1015.8 in ENE 11.1 mph 11.1 mph 82 % 0.0 in
20:29 14.5 °F 11.4 °F 1016.8 in ENE 5.6 mph 5.6 mph 82 % 0.0 in
20:30 11.8 °F 9.9 °F 1017.8 in Calm     88 % 0.0 in
20:31 14.5 °F 11.3 °F 1016.8 in ESE 9.3 mph 9.3 mph 81 % 0.0 in
20:36 14.4 °F 11.4 °F 1016.8 in ENE 6.4 mph 6.4 mph 82 % 0.0 in
20:40 11.7 °F 9.8 °F 1017.8 in Calm     88 % 0.0 in
20:41 14.3 °F 11.3 °F 1016.8 in East 9.3 mph 9.3 mph 82 % 0.0 in
20:46 14.3 °F 11.3 °F 1016.8 in ESE 6.9 mph 6.9 mph 82 % 0.0 in
20:50 11.6 °F 9.7 °F 1017.8 in Calm     88 % 0.0 in
20:51 14.2 °F 11.2 °F 1016.8 in NNE 7.4 mph 7.4 mph 82 % 0.0 in
20:56 14.1 °F 11.1 °F 1016.8 in SE 9.3 mph 9.3 mph 82 % 0.0 in
21:00 11.6 °F 9.7 °F 1017.8 in Calm     88 % 0.0 in
21:01 14.1 °F 11.1 °F 1016.8 in ESE 5.8 mph 5.8 mph 82 % 0.0 in
21:06 14.0 °F 11.0 °F 1016.8 in ESE 7.4 mph 7.4 mph 82 % 0.0 in
21:10 11.4 °F 9.5 °F 1017.8 in Calm     88 % 0.0 in
21:11 13.9 °F 10.9 °F 1016.8 in ESE 7.4 mph 7.4 mph 82 % 0.0 in
21:16 13.8 °F 10.8 °F 1016.8 in ESE 5.6 mph 5.6 mph 82 % 0.0 in
21:20 11.5 °F 9.6 °F 1017.8 in Calm     88 % 0.0 in
21:21 13.7 °F 10.7 °F 1016.8 in ENE 5.6 mph 5.6 mph 82 % 0.0 in
21:26 13.6 °F 10.6 °F 1016.8 in ENE 7.4 mph 7.4 mph 82 % 0.0 in
21:30 11.5 °F 9.7 °F 1017.8 in Calm     89 % 0.0 in
21:31 13.5 °F 10.5 °F 1016.8 in NE 3.7 mph 3.7 mph 82 % 0.0 in
21:36 13.4 °F 10.4 °F 1016.8 in NE 3.7 mph 3.7 mph 82 % 0.0 in
21:40 11.5 °F 9.7 °F 1016.8 in Calm     89 % 0.0 in
21:41 13.4 °F 10.4 °F 1016.8 in ESE 5.6 mph 5.6 mph 82 % 0.0 in
21:46 13.3 °F 10.3 °F 1016.8 in ENE 3.7 mph 3.7 mph 82 % 0.0 in
21:49 13.3 °F 10.5 °F 1016.8 in ESE 5.6 mph 5.6 mph 83 % 0.0 in
21:50 13.3 °F 10.5 °F 1016.8 in ENE 2.3 mph 2.3 mph 83 % 0.0 in
21:52 13.3 °F 10.3 °F 1016.8 in East 3.7 mph 3.7 mph 82 % 0.0 in
21:57 13.2 °F 10.4 °F 1016.8 in ENE 7.4 mph 7.4 mph 83 % 0.0 in
22:00 11.4 °F 9.7 °F 1016.8 in Calm     89 % 0.0 in
22:02 13.2 °F 10.4 °F 1017.8 in SE 7.4 mph 7.4 mph 83 % 0.0 in
22:07 13.1 °F 10.3 °F 1017.8 in ENE 5.6 mph 5.6 mph 83 % 0.0 in
22:10 11.4 °F 9.7 °F 1016.8 in Calm     89 % 0.0 in
22:12 13.1 °F 10.3 °F 1017.8 in ESE 5.6 mph 5.6 mph 83 % 0.0 in
22:17 13.0 °F 10.2 °F 1017.8 in East 5.3 mph 5.3 mph 83 % 0.0 in
22:20 11.3 °F 9.6 °F 1015.8 in Calm     89 % 0.0 in
22:22 12.9 °F 10.1 °F 1017.8 in ENE 3.5 mph   83 % 0.0 in
22:27 12.8 °F 10.2 °F 1017.8 in Calm     84 % 0.0 in
22:30 11.3 °F 9.7 °F 1015.8 in Calm     90 % 0.0 in
22:32 12.8 °F 10.2 °F 1017.8 in ENE 2.3 mph   84 % 0.0 in
22:37 12.7 °F 10.1 °F 1017.8 in East 3.7 mph 3.7 mph 84 % 0.0 in
22:40 11.3 °F 9.7 °F 1015.8 in Calm     90 % 0.0 in
22:42 12.7 °F 10.1 °F 1017.8 in East 1.4 mph   84 % 0.0 in
22:47 12.6 °F 9.9 °F 1017.8 in East 1.9 mph 1.9 mph 84 % 0.0 in
22:50 11.3 °F 9.7 °F 1015.8 in Calm   1.6 mph 90 % 0.0 in
22:52 12.6 °F 9.9 °F 1017.8 in Calm     84 % 0.0 in
22:57 12.6 °F 9.9 °F 1017.8 in NNE 3.7 mph 3.7 mph 84 % 0.0 in
23:00 11.2 °F 9.6 °F 1015.8 in Calm     90 % 0.0 in
23:02 12.5 °F 9.9 °F 1017.8 in Calm     84 % 0.0 in
23:07 12.5 °F 9.9 °F 1017.8 in Calm     84 % 0.0 in
23:12 12.4 °F 9.8 °F 1017.8 in Calm     84 % 0.0 in
23:17 12.4 °F 9.8 °F 1017.8 in Calm     84 % 0.0 in
23:20 11.0 °F 9.3 °F 1015.8 in Calm   3.2 mph 89 % 0.0 in
23:22 12.4 °F 9.9 °F 1017.8 in Calm     85 % 0.0 in
23:27 12.4 °F 9.9 °F 1017.8 in NNW 1.9 mph   85 % 0.0 in
23:30 11.0 °F 9.3 °F 1015.8 in SW 1.6 mph 3.2 mph 89 % 0.0 in
23:32 12.4 °F 9.9 °F 1017.8 in Calm     85 % 0.0 in
23:37 12.3 °F 9.7 °F 1017.8 in Calm     84 % 0.0 in
23:40 11.1 °F 9.5 °F 1015.8 in Calm   1.6 mph 90 % 0.0 in
23:42 12.3 °F 9.8 °F 1017.8 in Calm     85 % 0.0 in
23:47 12.4 °F 9.9 °F 1017.8 in NE 3.7 mph 3.7 mph 85 % 0.0 in
23:50 11.1 °F 9.5 °F 1015.8 in Calm     90 % 0.0 in
23:52 12.3 °F 10.0 °F 1017.8 in Calm     86 % 0.0 in
23:57 12.3 °F 10.0 °F 1017.8 in NNE 1.4 mph   86 % 0.0 in
Meteo Sesrovires
Elogis d' Weather Underground - 2 mb

Guio original per  Jim McMurry - jmcmurry@mwt.net Adaptat per a la plantilla per  Wim van der Kuil - Leuven-Template.eu

Trobareu la nostra informacio del temps tambe a:

Weather Underground

AWEKAS